Portada
METAR-TAF:

METAR-TAF

Aeropuertos :

Aeropuerto Internacional Philip S. W. Goldson

Ciudad de Belice, Belice

latitud: 17-32N, longitud: 088-18W, altitud: 5 m

Observación

El informe se hizo hace 7 horas y 43 minutos, a las 00:00 UTC
Viento 7 kt del este
Temperatura 30°C
Humedad 75%
Presión 1014 hPa
Visibilidad 10 km o más
Escasas nubes a una altura de 2000 ft

METAR: MZBZ 210000Z 09007KT 9999 FEW020 30/25 A2994 Q1014 NOSIG RMK HZY

Hora: 01:43 (07:43 UTC)

Pronóstico

El informe se hizo hace 4 horas y 43 minutos, a las 03:00 UTC
Pronóstico válido del 21 a las 06 UTC al 22 a las 06 UTC
Viento 10 kt del este
Visibilidad 10 km o más
Nubes dispersas a una altura de 2300 ft
Probabilidad 30% :
Temporalmente
del 21 a las 15 UTC al 21 a las 21 UTC
Visibilidad: 8000 m
Nubes dispersas a una altura de 1200 ft, Cumulonimbus.
Cielo nuboso a una altura de 3500 ft
tormenta

TAF: MZBZ 210300Z 2106/2206 08010KT 9999 SCT023 PROB30 TEMPO 2115/2121 8000 TS SCT012CB BKN035

Observaciones y pronósticos meteorológicos de más de 4000 aeropuertos (mensajes METAR y TAF).

Los puntos amarillos y rojos representan las estaciones disponibles.

Ponga el ratón en el punto deseado para ver el nombre de la estación.

Haga clic para ver las observaciones y los pronósticos meteorológicos.

Para cambiar el mapa : haga clic en los botones verdes con una cruz de color negro para hacer un zoom, en el botón verde con un guión para alejar o en las flechas verdes para mapas adyacentes.


METAR-TAF: